createdAt,value
2022-09-12T00:00:34.320Z,91.98
2022-09-12T00:01:33.350Z,91.16
2022-09-12T00:02:33.296Z,91.27
2022-09-12T00:03:33.291Z,90.75
2022-09-12T00:04:33.281Z,90.45
2022-09-12T00:05:33.284Z,90.45
2022-09-12T00:06:33.273Z,90.35
2022-09-12T00:07:33.256Z,90.45
2022-09-12T00:08:33.256Z,90.35
2022-09-12T00:09:33.252Z,90.25
2022-09-12T00:10:33.256Z,90.80
2022-09-12T00:11:33.236Z,91.06
2022-09-12T00:12:33.244Z,91.27
2022-09-12T00:13:33.220Z,91.57
2022-09-12T00:14:33.220Z,91.82
2022-09-12T00:15:33.220Z,91.41
2022-09-12T00:16:33.347Z,93.05
2022-09-12T00:17:33.192Z,93.35
2022-09-12T00:18:33.187Z,93.51
2022-09-12T00:19:33.184Z,93.35
2022-09-12T00:20:33.187Z,93.45
2022-09-12T00:21:33.172Z,93.45
2022-09-12T00:22:33.168Z,93.96
2022-09-12T00:23:33.156Z,93.86
2022-09-12T00:24:33.153Z,93.76
2022-09-12T00:25:33.145Z,93.66
2022-09-12T00:26:33.149Z,93.70
2022-09-12T00:27:33.120Z,93.40
2022-09-12T00:28:33.146Z,93.15
2022-09-12T00:29:33.113Z,93.09
2022-09-12T00:30:33.129Z,93.09
2022-09-12T00:31:33.194Z,93.09
2022-09-12T00:32:33.084Z,93.35
2022-09-12T00:33:33.094Z,93.05
2022-09-12T00:34:33.087Z,92.17
2022-09-12T00:35:33.073Z,92.27
2022-09-12T00:36:33.077Z,92.47
2022-09-12T00:37:33.068Z,92.58
2022-09-12T00:38:33.065Z,92.78
2022-09-12T00:39:33.053Z,92.88
2022-09-12T00:40:33.053Z,92.99
2022-09-12T00:41:33.057Z,92.47
2022-09-12T00:42:33.030Z,93.29
2022-09-12T00:43:33.026Z,95.64
2022-09-12T00:44:33.017Z,94.37
2022-09-12T00:45:33.027Z,93.45
2022-09-12T00:46:33.001Z,93.29
2022-09-12T00:47:33.001Z,93.15
2022-09-12T00:48:32.989Z,92.43
2022-09-12T00:49:32.981Z,92.23
2022-09-12T00:50:32.985Z,92.02
2022-09-12T00:51:32.970Z,91.72
2022-09-12T00:52:32.973Z,91.72
2022-09-12T00:53:32.949Z,91.92
2022-09-12T00:54:32.944Z,92.13
2022-09-12T00:55:32.931Z,93.05
2022-09-12T00:56:32.925Z,93.66
2022-09-12T00:57:32.929Z,93.09
2022-09-12T00:58:32.917Z,92.99
2022-09-12T00:59:32.914Z,92.78
2022-09-12T01:00:32.906Z,92.47
2022-09-12T01:01:33.106Z,92.54
2022-09-12T01:02:32.897Z,92.33
2022-09-12T01:03:32.886Z,92.47
2022-09-12T01:04:32.870Z,92.88
2022-09-12T01:05:32.860Z,92.54
2022-09-12T01:06:32.868Z,92.68
2022-09-12T01:07:35.798Z,92.47
2022-09-12T01:08:33.861Z,92.54
2022-09-12T01:09:32.857Z,92.37
2022-09-12T01:10:32.829Z,92.07
2022-09-12T01:11:32.833Z,91.46
2022-09-12T01:12:32.827Z,92.17
2022-09-12T01:13:32.825Z,92.78
2022-09-12T01:14:32.825Z,93.09
2022-09-12T01:15:32.802Z,92.99
2022-09-12T01:16:32.825Z,92.58
2022-09-12T01:17:32.785Z,92.54
2022-09-12T01:18:32.793Z,91.86
2022-09-12T01:19:32.781Z,91.86
2022-09-12T01:20:32.770Z,92.47
2022-09-12T01:21:32.761Z,92.07
2022-09-12T01:22:32.748Z,92.78
2022-09-12T01:23:32.746Z,92.07
2022-09-12T01:24:32.759Z,92.58
2022-09-12T01:25:32.728Z,92.99
2022-09-12T01:26:32.728Z,93.19
2022-09-12T01:27:32.713Z,93.40
2022-09-12T01:28:32.713Z,93.40
2022-09-12T01:29:32.718Z,92.88
2022-09-12T01:30:32.698Z,92.27
2022-09-12T01:31:32.697Z,92.78
2022-09-12T01:32:32.686Z,93.40
2022-09-12T01:33:32.678Z,92.88
2022-09-12T01:34:32.699Z,92.99
2022-09-12T01:35:32.669Z,92.88
2022-09-12T01:36:32.657Z,93.40
2022-09-12T01:37:32.645Z,93.19
2022-09-12T01:38:32.644Z,93.09
2022-09-12T01:39:32.631Z,92.88
2022-09-12T01:40:32.641Z,93.29
2022-09-12T01:41:32.629Z,93.74
2022-09-12T01:42:32.618Z,94.11
2022-09-12T01:43:32.613Z,95.13
2022-09-12T01:44:32.613Z,96.00
2022-09-12T01:45:32.667Z,95.79
2022-09-12T01:46:32.593Z,96.51
2022-09-12T01:47:32.584Z,97.63
2022-09-12T01:48:32.572Z,97.12
2022-09-12T01:49:32.566Z,97.06
2022-09-12T01:50:32.572Z,97.02
2022-09-12T01:51:32.556Z,97.98
2022-09-12T01:52:32.551Z,98.08
2022-09-12T01:53:32.544Z,98.14
2022-09-12T01:54:32.535Z,97.98
2022-09-12T01:55:32.541Z,97.94
2022-09-12T01:56:32.524Z,98.04
2022-09-12T01:57:32.508Z,97.83
2022-09-12T01:58:32.512Z,97.33
2022-09-12T01:59:32.509Z,97.63
2022-09-12T02:00:32.525Z,97.38
2022-09-12T02:01:32.506Z,97.12
2022-09-12T02:02:32.476Z,97.28
2022-09-12T02:03:32.470Z,97.22
2022-09-12T02:04:34.360Z,96.92
2022-09-12T02:05:33.490Z,97.12
2022-09-12T02:06:32.477Z,97.42
2022-09-12T02:07:32.452Z,98.14
2022-09-12T02:08:32.441Z,98.04
2022-09-12T02:09:32.439Z,97.79
2022-09-12T02:10:32.863Z,97.28
2022-09-12T02:11:33.429Z,97.17
2022-09-12T02:12:32.412Z,97.08
2022-09-12T02:13:32.412Z,97.17
2022-09-12T02:14:32.408Z,96.97
2022-09-12T02:15:32.401Z,97.79
2022-09-12T02:16:32.413Z,97.17
2022-09-12T02:17:32.378Z,97.13
2022-09-12T02:18:32.377Z,96.87
2022-09-12T02:19:32.365Z,97.38
2022-09-12T02:20:47.550Z,96.97
2022-09-12T02:21:34.349Z,97.58
2022-09-12T02:22:32.359Z,97.79
2022-09-12T02:23:32.354Z,97.13
2022-09-12T02:24:32.328Z,97.17
2022-09-12T02:25:32.328Z,97.13
2022-09-12T02:26:32.309Z,96.83
2022-09-12T02:27:33.310Z,96.42
2022-09-12T02:28:32.330Z,95.85
2022-09-12T02:29:32.309Z,95.80
2022-09-12T02:30:32.350Z,96.01
2022-09-12T02:31:32.289Z,96.21
2022-09-12T02:32:32.288Z,96.62
2022-09-12T02:33:32.297Z,97.44
2022-09-12T02:34:32.339Z,97.13
2022-09-12T02:35:32.269Z,97.64
2022-09-12T02:36:32.265Z,97.69
2022-09-12T02:37:32.253Z,98.91
2022-09-12T02:38:32.249Z,98.30
2022-09-12T02:39:32.252Z,99.32
2022-09-12T02:40:32.224Z,99.43
2022-09-12T02:41:32.221Z,99.43
2022-09-12T02:42:32.217Z,99.22
2022-09-12T02:43:33.080Z,99.32
2022-09-12T02:44:32.220Z,99.63
2022-09-12T02:45:32.270Z,99.84
2022-09-12T02:46:32.180Z,99.99
2022-09-12T02:47:32.177Z,99.99
2022-09-12T02:48:32.173Z,99.99
2022-09-12T02:49:32.168Z,99.99
2022-09-12T02:50:32.162Z,99.99
2022-09-12T02:51:32.164Z,99.99
2022-09-12T02:52:32.152Z,99.99
2022-09-12T02:53:32.145Z,99.99
2022-09-12T02:54:32.147Z,99.99
2022-09-12T02:55:32.136Z,99.99
2022-09-12T02:56:32.118Z,99.99
2022-09-12T02:57:33.112Z,99.99
2022-09-12T02:58:32.100Z,99.99
2022-09-12T02:59:32.100Z,99.99
2022-09-12T03:00:32.101Z,99.99
2022-09-12T03:01:32.111Z,99.99
2022-09-12T03:02:32.078Z,99.99
2022-09-12T03:03:32.068Z,99.99
2022-09-12T03:04:32.076Z,99.99
2022-09-12T03:05:32.066Z,99.99
2022-09-12T03:06:32.052Z,99.99
2022-09-12T03:07:32.036Z,99.99
2022-09-12T03:08:32.038Z,99.99
2022-09-12T03:09:32.029Z,99.99
2022-09-12T03:10:32.021Z,99.99
2022-09-12T03:11:32.028Z,99.99
2022-09-12T03:12:32.007Z,99.99
2022-09-12T03:13:31.992Z,99.99
2022-09-12T03:14:32.991Z,99.99
2022-09-12T03:15:32.001Z,99.99
2022-09-12T03:16:32.019Z,99.99
2022-09-12T03:17:31.957Z,99.99
2022-09-12T03:18:31.966Z,99.99
2022-09-12T03:19:31.960Z,99.99
2022-09-12T03:20:31.961Z,99.99
2022-09-12T03:21:31.964Z,99.99
2022-09-12T03:22:31.940Z,99.99
2022-09-12T03:23:31.920Z,99.99
2022-09-12T03:24:31.926Z,99.99
2022-09-12T03:25:31.917Z,99.99
2022-09-12T03:26:31.928Z,99.99
2022-09-12T03:27:31.908Z,99.99
2022-09-12T03:28:31.896Z,99.99
2022-09-12T03:29:31.889Z,99.93
2022-09-12T03:30:31.934Z,99.93
2022-09-12T03:31:31.883Z,99.99
2022-09-12T03:32:31.865Z,99.93
2022-09-12T03:33:31.859Z,99.84
2022-09-12T03:34:31.853Z,99.84
2022-09-12T03:35:31.844Z,99.93
2022-09-12T03:36:31.845Z,99.63
2022-09-12T03:37:31.825Z,99.27
2022-09-12T03:38:31.816Z,99.11
2022-09-12T03:39:31.817Z,99.22
2022-09-12T03:40:31.808Z,99.22
2022-09-12T03:41:31.813Z,98.75
2022-09-12T03:42:31.800Z,98.81
2022-09-12T03:43:31.792Z,98.71
2022-09-12T03:44:31.780Z,99.22
2022-09-12T03:45:31.807Z,99.27
2022-09-12T03:46:31.768Z,99.27
2022-09-12T03:47:31.775Z,99.68
2022-09-12T03:48:31.756Z,99.57
2022-09-12T03:49:31.743Z,99.88
2022-09-12T03:50:31.745Z,99.99
2022-09-12T03:51:31.740Z,99.68
2022-09-12T03:52:31.728Z,99.99
2022-09-12T03:53:31.740Z,99.93
2022-09-12T03:54:31.721Z,99.99
2022-09-12T03:55:31.708Z,99.68
2022-09-12T03:56:31.707Z,99.47
2022-09-12T03:57:31.711Z,99.32
2022-09-12T03:58:31.683Z,99.43
2022-09-12T03:59:31.681Z,99.32
2022-09-12T04:00:31.677Z,99.27
2022-09-12T04:01:31.686Z,98.50
2022-09-12T04:02:31.689Z,97.89
2022-09-12T04:03:31.672Z,98.10
2022-09-12T04:04:31.652Z,98.24
2022-09-12T04:05:31.636Z,98.96
2022-09-12T04:06:31.635Z,99.47
2022-09-12T04:07:31.628Z,99.47
2022-09-12T04:08:31.635Z,99.62
2022-09-12T04:09:31.615Z,99.93
2022-09-12T04:10:31.607Z,99.99
2022-09-12T04:11:31.612Z,99.88
2022-09-12T04:12:31.597Z,99.99
2022-09-12T04:13:31.997Z,99.88
2022-09-12T04:14:31.581Z,99.88
2022-09-12T04:15:31.583Z,99.68
2022-09-12T04:16:31.580Z,99.68
2022-09-12T04:17:32.555Z,99.57
2022-09-12T04:18:31.568Z,99.47
2022-09-12T04:19:31.544Z,99.88
2022-09-12T04:20:31.537Z,99.88
2022-09-12T04:21:31.529Z,99.88
2022-09-12T04:22:31.528Z,99.62
2022-09-12T04:23:31.532Z,99.62
2022-09-12T04:24:31.514Z,99.93
2022-09-12T04:25:31.555Z,99.88
2022-09-12T04:26:31.499Z,99.99
2022-09-12T04:27:31.492Z,99.82
2022-09-12T04:28:31.484Z,99.99
2022-09-12T04:29:31.497Z,99.99
2022-09-12T04:30:31.488Z,99.98
2022-09-12T04:31:31.465Z,99.47
2022-09-12T04:32:31.461Z,99.63
2022-09-12T04:33:31.451Z,99.43
2022-09-12T04:34:31.459Z,99.32
2022-09-12T04:35:31.468Z,99.02
2022-09-12T04:36:31.423Z,99.02
2022-09-12T04:37:31.423Z,99.11
2022-09-12T04:38:31.421Z,99.11
2022-09-12T04:39:31.411Z,99.43
2022-09-12T04:40:31.415Z,99.37
2022-09-12T04:41:31.398Z,99.52
2022-09-12T04:42:31.392Z,99.43
2022-09-12T04:43:31.399Z,99.16
2022-09-12T04:44:31.409Z,99.06
2022-09-12T04:45:31.416Z,99.37
2022-09-12T04:46:31.363Z,99.47
2022-09-12T04:47:31.360Z,99.78
2022-09-12T04:48:31.354Z,99.99
2022-09-12T04:49:31.343Z,99.99
2022-09-12T04:50:31.355Z,99.99
2022-09-12T04:51:31.327Z,99.99
2022-09-12T04:52:31.328Z,99.99
2022-09-12T04:53:31.315Z,99.99
2022-09-12T04:54:31.308Z,99.99
2022-09-12T04:55:31.319Z,99.99
2022-09-12T04:56:31.296Z,99.99
2022-09-12T04:57:31.292Z,99.99
2022-09-12T04:58:31.287Z,99.99
2022-09-12T04:59:31.276Z,99.99
2022-09-12T05:00:31.275Z,99.99
2022-09-12T05:01:31.338Z,99.99
2022-09-12T05:02:31.285Z,99.99
2022-09-12T05:03:31.247Z,99.99
2022-09-12T05:04:31.235Z,99.98
2022-09-12T05:05:31.236Z,99.84
2022-09-12T05:06:31.234Z,99.84
2022-09-12T05:07:31.220Z,99.63
2022-09-12T05:08:31.211Z,99.43
2022-09-12T05:09:31.199Z,99.37
2022-09-12T05:10:31.208Z,99.37
2022-09-12T05:11:52.973Z,99.93
2022-09-12T05:12:33.187Z,99.82
2022-09-12T05:13:31.174Z,99.99
2022-09-12T05:14:31.188Z,99.99
2022-09-12T05:15:31.161Z,99.99
2022-09-12T05:16:31.164Z,99.99
2022-09-12T05:17:32.147Z,99.99
2022-09-12T05:18:31.143Z,99.99
2022-09-12T05:19:31.144Z,99.99
2022-09-12T05:20:31.131Z,99.99
2022-09-12T05:21:31.135Z,99.99
2022-09-12T05:22:31.111Z,99.99
2022-09-12T05:23:31.110Z,99.99
2022-09-12T05:24:31.102Z,99.99
2022-09-12T05:25:31.095Z,99.99
2022-09-12T05:26:31.096Z,99.99
2022-09-12T05:27:31.083Z,99.99
2022-09-12T05:28:31.075Z,99.99
2022-09-12T05:29:31.072Z,99.99
2022-09-12T05:30:31.108Z,99.99
2022-09-12T05:31:31.073Z,99.99
2022-09-12T05:32:31.048Z,99.99
2022-09-12T05:33:31.026Z,99.99
2022-09-12T05:34:31.030Z,99.99
2022-09-12T05:35:31.042Z,99.99
2022-09-12T05:36:31.023Z,99.99
2022-09-12T05:37:31.007Z,99.99
2022-09-12T05:38:31.069Z,99.98
2022-09-12T05:39:32.031Z,99.99
2022-09-12T05:40:30.987Z,99.06
2022-09-12T05:41:31.006Z,99.52
2022-09-12T05:42:30.968Z,99.62
2022-09-12T05:43:30.980Z,99.88
2022-09-12T05:44:30.983Z,99.68
2022-09-12T05:45:30.975Z,99.37
2022-09-12T05:46:30.946Z,99.31
2022-09-12T05:47:30.955Z,99.98
2022-09-12T05:48:30.938Z,99.98
2022-09-12T05:49:30.932Z,99.47
2022-09-12T05:50:30.927Z,99.11
2022-09-12T05:51:30.907Z,99.21
2022-09-12T05:52:30.924Z,99.41
2022-09-12T05:53:30.899Z,99.11
2022-09-12T05:54:31.757Z,99.72
2022-09-12T05:55:30.875Z,99.99
2022-09-12T05:56:30.931Z,99.99
2022-09-12T05:57:30.871Z,99.99
2022-09-12T05:58:30.886Z,99.99
2022-09-12T05:59:30.850Z,99.99
2022-09-12T06:00:33.510Z,99.52
2022-09-12T06:01:31.893Z,99.99
2022-09-12T06:02:30.868Z,99.72
2022-09-12T06:03:30.833Z,99.99
2022-09-12T06:04:30.821Z,99.99
2022-09-12T06:05:30.809Z,99.99
2022-09-12T06:06:30.818Z,99.99
2022-09-12T06:07:30.793Z,99.88
2022-09-12T06:08:30.817Z,99.84
2022-09-12T06:09:30.807Z,99.63
2022-09-12T06:10:30.785Z,99.57
2022-09-12T06:11:30.773Z,99.63
2022-09-12T06:12:30.777Z,99.63
2022-09-12T06:13:30.813Z,99.43
2022-09-12T06:14:30.753Z,99.63
2022-09-12T06:15:30.745Z,99.63
2022-09-12T06:16:30.781Z,99.63
2022-09-12T06:17:30.743Z,99.58
2022-09-12T06:18:30.771Z,99.07
2022-09-12T06:19:30.720Z,99.38
2022-09-12T06:20:30.717Z,98.15
2022-09-12T06:21:30.705Z,98.97
2022-09-12T06:22:30.786Z,98.25
2022-09-12T06:23:30.698Z,98.25
2022-09-12T06:24:30.693Z,97.74
2022-09-12T06:25:30.686Z,98.05
2022-09-12T06:26:30.676Z,98.97
2022-09-12T06:27:30.661Z,98.66
2022-09-12T06:28:30.657Z,97.99
2022-09-12T06:29:30.669Z,98.25
2022-09-12T06:30:30.708Z,97.95
2022-09-12T06:31:30.649Z,97.95
2022-09-12T06:32:30.637Z,98.86
2022-09-12T06:33:30.617Z,97.85
2022-09-12T06:34:30.621Z,98.15
2022-09-12T06:35:30.629Z,98.21
2022-09-12T06:36:30.610Z,98.61
2022-09-12T06:37:30.597Z,99.43
2022-09-12T06:38:30.599Z,98.31
2022-09-12T06:39:30.590Z,98.06
2022-09-12T06:40:30.581Z,97.75
2022-09-12T06:41:30.589Z,99.99
2022-09-12T06:42:30.560Z,97.56
2022-09-12T06:43:30.561Z,96.84
2022-09-12T06:44:30.561Z,96.14
2022-09-12T06:45:30.578Z,96.03
2022-09-12T06:46:30.549Z,94.65
2022-09-12T06:47:30.544Z,95.06
2022-09-12T06:48:30.537Z,94.85
2022-09-12T06:49:30.541Z,95.92
2022-09-12T06:50:30.537Z,95.92
2022-09-12T06:51:30.520Z,96.73
2022-09-12T06:52:30.498Z,96.43
2022-09-12T06:53:30.501Z,95.92
2022-09-12T06:54:30.492Z,96.22
2022-09-12T06:55:30.504Z,96.68
2022-09-12T06:56:30.497Z,96.92
2022-09-12T06:57:30.488Z,97.19
2022-09-12T06:58:30.465Z,97.49
2022-09-12T06:59:30.457Z,97.08
2022-09-12T07:00:30.600Z,97.70
2022-09-12T07:01:30.453Z,97.49
2022-09-12T07:02:30.481Z,97.86
2022-09-12T07:03:30.442Z,97.20
2022-09-12T07:04:30.433Z,98.68
2022-09-12T07:05:30.441Z,99.35
2022-09-12T07:06:30.417Z,97.57
2022-09-12T07:07:30.409Z,96.25
2022-09-12T07:08:30.405Z,94.37
2022-09-12T07:09:30.405Z,93.09
2022-09-12T07:10:30.401Z,92.27
2022-09-12T07:11:30.405Z,92.18
2022-09-12T07:12:30.392Z,92.22
2022-09-12T07:13:30.373Z,92.38
2022-09-12T07:14:30.361Z,92.89
2022-09-12T07:15:30.397Z,93.09
2022-09-12T07:16:31.484Z,93.24
2022-09-12T07:17:30.352Z,93.33
2022-09-12T07:18:30.340Z,93.29
2022-09-12T07:19:30.333Z,93.80
2022-09-12T07:20:30.328Z,94.31
2022-09-12T07:21:30.343Z,94.01
2022-09-12T07:22:30.318Z,94.07
2022-09-12T07:23:30.294Z,94.17
2022-09-12T07:24:30.309Z,94.23
2022-09-12T07:25:30.296Z,93.87
2022-09-12T07:26:30.320Z,93.26
2022-09-12T07:27:30.284Z,92.04
2022-09-12T07:28:30.285Z,93.02
2022-09-12T07:29:36.932Z,92.97
2022-09-12T07:30:32.276Z,92.06
2022-09-12T07:31:30.273Z,90.44
2022-09-12T07:32:30.249Z,89.88
2022-09-12T07:33:30.244Z,89.68
2022-09-12T07:34:30.236Z,87.99
2022-09-12T07:35:30.217Z,88.59
2022-09-12T07:36:30.234Z,89.00
2022-09-12T07:37:30.221Z,90.46
2022-09-12T07:38:30.202Z,91.31
2022-09-12T07:39:30.202Z,91.62
2022-09-12T07:40:30.196Z,92.03
2022-09-12T07:41:30.195Z,92.80
2022-09-12T07:42:30.176Z,92.80
2022-09-12T07:43:30.172Z,92.49
2022-09-12T07:44:30.161Z,91.58
2022-09-12T07:45:30.157Z,92.64
2022-09-12T07:46:30.160Z,92.80
2022-09-12T07:47:30.148Z,92.86
2022-09-12T07:48:30.136Z,93.02
2022-09-12T07:49:30.132Z,91.96
2022-09-12T07:50:30.124Z,91.25
2022-09-12T07:51:30.150Z,90.29
2022-09-12T07:52:30.111Z,90.86
2022-09-12T07:53:30.109Z,91.12
2022-09-12T07:54:30.123Z,89.86
2022-09-12T07:55:30.093Z,89.76
2022-09-12T07:56:32.027Z,88.49
2022-09-12T07:57:31.072Z,87.85
2022-09-12T07:58:30.068Z,87.95
2022-09-12T07:59:51.363Z,87.51
2022-09-12T08:00:32.049Z,85.68
2022-09-12T08:01:30.105Z,84.63
2022-09-12T08:02:30.059Z,84.12
2022-09-12T08:03:30.034Z,83.61
2022-09-12T08:04:30.029Z,85.80
2022-09-12T08:05:30.011Z,83.88
2022-09-12T08:06:30.012Z,81.96
2022-09-12T08:07:29.992Z,82.87
2022-09-12T08:08:29.984Z,83.07
2022-09-12T08:09:29.975Z,83.68
2022-09-12T08:10:29.972Z,83.58
2022-09-12T08:11:29.951Z,82.73
2022-09-12T08:12:29.975Z,81.37
2022-09-12T08:13:29.956Z,82.79
2022-09-12T08:14:29.940Z,82.28
2022-09-12T08:15:29.967Z,82.91
2022-09-12T08:16:29.925Z,80.29
2022-09-12T08:17:29.931Z,79.85
2022-09-12T08:18:29.916Z,78.84
2022-09-12T08:19:29.908Z,78.50
2022-09-12T08:20:29.900Z,77.73
2022-09-12T08:21:29.883Z,80.15
2022-09-12T08:22:29.892Z,77.19
2022-09-12T08:23:29.891Z,77.69
2022-09-12T08:24:29.873Z,78.16
2022-09-12T08:25:29.860Z,79.57
2022-09-12T08:26:29.860Z,78.63
2022-09-12T08:27:29.920Z,77.11
2022-09-12T08:28:29.850Z,75.76
2022-09-12T08:29:29.833Z,76.91
2022-09-12T08:30:29.839Z,77.01
2022-09-12T08:31:29.816Z,76.00
2022-09-12T08:32:29.812Z,77.48
2022-09-12T08:33:29.827Z,75.83
2022-09-12T08:34:29.972Z,76.64
2022-09-12T08:35:29.800Z,73.65
2022-09-12T08:36:29.801Z,72.14
2022-09-12T08:37:29.797Z,73.04
2022-09-12T08:38:29.776Z,73.78
2022-09-12T08:39:29.783Z,75.39
2022-09-12T08:40:29.763Z,76.80
2022-09-12T08:41:29.760Z,74.82
2022-09-12T08:42:29.741Z,74.55
2022-09-12T08:43:30.766Z,71.50
2022-09-12T08:44:29.739Z,71.50
2022-09-12T08:45:29.723Z,72.50
2022-09-12T08:46:29.768Z,70.39
2022-09-12T08:47:29.715Z,71.36
2022-09-12T08:48:29.716Z,70.86
2022-09-12T08:49:29.716Z,71.20
2022-09-12T08:50:29.699Z,70.36
2022-09-12T08:51:29.689Z,71.26
2022-09-12T08:52:29.687Z,70.32
2022-09-12T08:53:29.701Z,70.66
2022-09-12T08:54:29.679Z,71.56
2022-09-12T08:55:29.676Z,70.12
2022-09-12T08:56:31.686Z,69.92
2022-09-12T08:57:30.649Z,70.19
2022-09-12T08:58:29.646Z,71.20
2022-09-12T08:59:29.652Z,69.46
2022-09-12T09:00:29.624Z,70.09
2022-09-12T09:01:29.690Z,67.39
2022-09-12T09:02:29.641Z,68.13
2022-09-12T09:03:29.608Z,67.33
2022-09-12T09:04:29.600Z,68.66
2022-09-12T09:05:29.591Z,65.50
2022-09-12T09:06:29.580Z,65.94
2022-09-12T09:07:29.574Z,64.09
2022-09-12T09:08:29.567Z,59.58
2022-09-12T09:09:29.571Z,60.14
2022-09-12T09:10:29.568Z,58.94
2022-09-12T09:11:29.541Z,55.19
2022-09-12T09:12:29.539Z,55.51
2022-09-12T09:13:29.536Z,54.69
2022-09-12T09:14:29.544Z,54.34
2022-09-12T09:15:29.558Z,51.45
2022-09-12T09:16:29.503Z,52.06
2022-09-12T09:17:29.502Z,51.15
2022-09-12T09:18:29.500Z,49.92
2022-09-12T09:19:29.504Z,47.83
2022-09-12T09:20:29.483Z,46.87
2022-09-12T09:21:29.476Z,48.27
2022-09-12T09:22:29.468Z,48.47
2022-09-12T09:23:29.459Z,48.37
2022-09-12T09:24:29.475Z,48.57
2022-09-12T09:25:29.447Z,46.04
2022-09-12T09:26:29.439Z,48.28
2022-09-12T09:27:40.575Z,51.07
2022-09-12T09:28:31.455Z,49.27
2022-09-12T09:29:29.435Z,49.45
2022-09-12T09:30:29.419Z,49.25
2022-09-12T09:31:29.466Z,48.46
2022-09-12T09:32:29.399Z,48.07
2022-09-12T09:33:29.404Z,48.14
2022-09-12T09:34:29.403Z,49.50
2022-09-12T09:35:33.134Z,47.60
2022-09-12T09:36:30.391Z,46.91
2022-09-12T09:37:29.371Z,48.81
2022-09-12T09:38:29.367Z,47.97
2022-09-12T09:39:29.367Z,49.87
2022-09-12T09:40:29.355Z,50.07
2022-09-12T09:41:29.380Z,49.18
2022-09-12T09:42:29.347Z,48.58
2022-09-12T09:43:29.346Z,47.89
2022-09-12T09:44:29.356Z,49.52
2022-09-12T09:45:29.323Z,51.05
2022-09-12T09:46:29.371Z,51.67
2022-09-12T09:47:29.311Z,52.07
2022-09-12T09:48:29.360Z,51.79
2022-09-12T09:49:29.305Z,52.66
2022-09-12T09:50:29.292Z,52.86
2022-09-12T09:51:29.292Z,51.75
2022-09-12T09:52:29.275Z,51.94
2022-09-12T09:53:29.303Z,51.87
2022-09-12T09:54:29.268Z,51.70
2022-09-12T09:55:29.263Z,52.64
2022-09-12T09:56:29.247Z,54.77
2022-09-12T09:57:29.248Z,54.90
2022-09-12T09:58:29.248Z,54.80
2022-09-12T09:59:29.243Z,56.38
2022-09-12T10:00:29.216Z,56.36
2022-09-12T10:01:29.253Z,56.34
2022-09-12T10:02:29.270Z,55.32
2022-09-12T10:03:29.208Z,54.60
2022-09-12T10:04:29.219Z,53.58
2022-09-12T10:05:29.191Z,53.38
2022-09-12T10:06:29.195Z,52.36
2022-09-12T10:07:29.207Z,53.25
2022-09-12T10:08:29.183Z,53.85
2022-09-12T10:09:29.182Z,53.13
2022-09-12T10:10:29.162Z,51.84
2022-09-12T10:11:29.156Z,53.11
2022-09-12T10:12:29.158Z,51.59
2022-09-12T10:13:29.148Z,51.28
2022-09-12T10:14:29.159Z,50.51
2022-09-12T10:15:29.157Z,50.21
2022-09-12T10:16:29.111Z,50.63
2022-09-12T10:17:33.891Z,51.79
2022-09-12T10:18:31.147Z,52.73
2022-09-12T10:19:30.116Z,50.90
2022-09-12T10:20:29.083Z,49.77
2022-09-12T10:21:29.087Z,50.12
2022-09-12T10:22:29.091Z,48.10
2022-09-12T10:23:29.076Z,47.98
2022-09-12T10:24:29.093Z,46.38
2022-09-12T10:25:29.079Z,45.60
2022-09-12T10:26:29.047Z,46.58
2022-09-12T10:27:29.062Z,45.67
2022-09-12T10:28:29.045Z,45.18
2022-09-12T10:29:29.059Z,44.81
2022-09-12T10:30:29.187Z,44.22
2022-09-12T10:31:29.098Z,42.94
2022-09-12T10:32:30.985Z,42.38
2022-09-12T10:33:29.012Z,44.62
2022-09-12T10:34:29.010Z,42.77
2022-09-12T10:35:29.002Z,43.28
2022-09-12T10:36:29.064Z,47.00
2022-09-12T10:37:29.035Z,44.15
2022-09-12T10:38:28.987Z,45.03
2022-09-12T10:39:28.967Z,44.32
2022-09-12T10:40:28.963Z,42.90
2022-09-12T10:41:29.112Z,42.98
2022-09-12T10:42:28.959Z,42.08
2022-09-12T10:43:28.954Z,41.33
2022-09-12T10:44:28.950Z,42.53
2022-09-12T10:45:28.949Z,44.46
2022-09-12T10:46:29.003Z,43.75
2022-09-12T10:47:28.931Z,44.54
2022-09-12T10:48:28.906Z,42.35
2022-09-12T10:49:28.914Z,43.80
2022-09-12T10:50:28.911Z,41.61
2022-09-12T10:51:28.904Z,41.27
2022-09-12T10:52:28.907Z,40.37
2022-09-12T10:53:33.642Z,39.88
2022-09-12T10:54:30.879Z,40.51
2022-09-12T10:55:28.875Z,39.86
2022-09-12T10:56:28.870Z,39.90
2022-09-12T10:57:28.888Z,40.70
2022-09-12T10:58:28.919Z,41.22
2022-09-12T10:59:28.858Z,41.88
2022-09-12T11:00:28.846Z,39.50
2022-09-12T11:01:28.868Z,39.90
2022-09-12T11:02:28.901Z,41.49
2022-09-12T11:03:28.834Z,41.98
2022-09-12T11:04:28.818Z,41.93
2022-09-12T11:05:28.814Z,42.91
2022-09-12T11:06:28.815Z,40.13
2022-09-12T11:07:28.811Z,42.00
2022-09-12T11:08:28.806Z,43.21
2022-09-12T11:09:28.799Z,42.91
2022-09-12T11:10:31.016Z,42.60
2022-09-12T11:11:29.787Z,42.87
2022-09-12T11:12:28.787Z,42.99
2022-09-12T11:13:28.783Z,44.06
2022-09-12T11:14:28.770Z,45.81
2022-09-12T11:15:28.767Z,47.02
2022-09-12T11:16:28.760Z,47.74
2022-09-12T11:17:28.746Z,46.84
2022-09-12T11:18:28.756Z,46.67
2022-09-12T11:19:28.738Z,47.35
2022-09-12T11:20:28.733Z,48.84
2022-09-12T11:21:28.723Z,48.92
2022-09-12T11:22:31.741Z,48.94
2022-09-12T11:23:29.718Z,48.96
2022-09-12T11:24:28.719Z,49.66
2022-09-12T11:25:28.697Z,51.20
2022-09-12T11:26:28.699Z,51.40
2022-09-12T11:27:28.684Z,50.40
2022-09-12T11:28:28.687Z,51.17
2022-09-12T11:29:28.671Z,51.70
2022-09-12T11:30:28.731Z,51.87
2022-09-12T11:31:28.651Z,51.37
2022-09-12T11:32:28.659Z,50.16
2022-09-12T11:33:28.650Z,50.53
2022-09-12T11:34:28.645Z,50.85
2022-09-12T11:35:28.635Z,50.75
2022-09-12T11:36:28.627Z,50.35
2022-09-12T11:37:28.624Z,50.43
2022-09-12T11:38:28.621Z,50.35
2022-09-12T11:39:28.631Z,50.45
2022-09-12T11:40:28.624Z,50.13
2022-09-12T11:41:28.596Z,49.93
2022-09-12T11:42:28.581Z,50.70
2022-09-12T11:43:28.574Z,49.51
2022-09-12T11:44:28.593Z,50.68
2022-09-12T11:45:28.560Z,49.99
2022-09-12T11:46:28.600Z,50.18
2022-09-12T11:47:28.550Z,50.46
2022-09-12T11:48:28.550Z,48.15
2022-09-12T11:49:29.692Z,47.46
2022-09-12T11:50:28.531Z,47.93
2022-09-12T11:51:28.538Z,47.09
2022-09-12T11:52:28.527Z,48.20
2022-09-12T11:53:28.516Z,49.39
2022-09-12T11:54:28.527Z,49.41
2022-09-12T11:55:28.502Z,50.01
2022-09-12T11:56:28.495Z,50.51
2022-09-12T11:57:28.486Z,49.91
2022-09-12T11:58:28.488Z,49.81
2022-09-12T11:59:28.471Z,50.01
2022-09-12T12:00:28.486Z,50.73
2022-09-12T12:01:28.470Z,50.60
2022-09-12T12:02:28.512Z,50.60
2022-09-12T12:03:28.487Z,50.40
2022-09-12T12:04:28.458Z,51.20
2022-09-12T12:05:28.482Z,50.70
2022-09-12T12:06:28.434Z,51.89
2022-09-12T12:07:28.435Z,51.03
2022-09-12T12:08:28.424Z,52.31
2022-09-12T12:09:28.434Z,52.22
2022-09-12T12:10:28.424Z,51.65
2022-09-12T12:11:28.407Z,50.63
2022-09-12T12:12:28.484Z,50.28
2022-09-12T12:13:28.386Z,49.66
2022-09-12T12:14:28.394Z,48.77
2022-09-12T12:15:28.373Z,49.17
2022-09-12T12:16:29.370Z,49.39
2022-09-12T12:17:28.374Z,49.44
2022-09-12T12:18:28.374Z,48.11
2022-09-12T12:19:28.354Z,48.28
2022-09-12T12:20:28.350Z,47.31
2022-09-12T12:21:28.352Z,48.94
2022-09-12T12:22:28.340Z,48.50
2022-09-12T12:23:28.343Z,49.69
2022-09-12T12:24:28.334Z,48.13
2022-09-12T12:25:30.056Z,48.90
2022-09-12T12:26:29.310Z,49.07
2022-09-12T12:27:28.310Z,48.47
2022-09-12T12:28:28.307Z,47.96
2022-09-12T12:29:28.300Z,48.52
2022-09-12T12:30:28.295Z,50.23
2022-09-12T12:31:28.325Z,50.45
2022-09-12T12:32:28.286Z,51.45
2022-09-12T12:33:28.271Z,51.95
2022-09-12T12:34:28.258Z,51.20
2022-09-12T12:35:28.263Z,50.80
2022-09-12T12:36:28.251Z,52.26
2022-09-12T12:37:28.259Z,51.47
2022-09-12T12:38:28.261Z,51.62
2022-09-12T12:39:28.235Z,51.03
2022-09-12T12:40:28.232Z,52.22
2022-09-12T12:41:28.922Z,52.91
2022-09-12T12:42:28.252Z,53.83
2022-09-12T12:43:28.214Z,54.24
2022-09-12T12:44:28.198Z,53.51
2022-09-12T12:45:28.190Z,53.19
2022-09-12T12:46:28.229Z,53.06
2022-09-12T12:47:28.197Z,52.14
2022-09-12T12:48:28.205Z,51.50
2022-09-12T12:49:28.170Z,51.10
2022-09-12T12:50:28.158Z,51.10
2022-09-12T12:51:28.151Z,51.40
2022-09-12T12:52:28.146Z,51.00